Aviation Digital Data Service (ADDS)

Output produced by METARs form (0502 UTC 21 September 2017)
found at http://www.aviationweather.gov/adds/metars/
 
GABS 210430Z 23003KT 9999 FEW020 23/20 Q1012 NOSIG
TAF GABS 202300Z 2100/2206 22008KT 9999 FEW020 
     PROB40 
     TEMPO 2101/2107 14020G40KT 2000 SQ TSRA BKN015 SCT026CB 
     PROB40 
     TEMPO 2112/2120 09020G45KT 1200 SQ TSRA BKN015 SCT026CB
       
TAF GAGO 202300Z 2100/2124 20010KT 9999 SCT026 
     TEMPO 2106/2112 09020G40KT 1200 SQ BLDU TSRA BKN026 SCT033CB
       
GABS 210430Z 23003KT 9999 FEW020 23/20 Q1012 NOSIG
TAF GABS 202300Z 2100/2206 22008KT 9999 FEW020 
     PROB40 
     TEMPO 2101/2107 14020G40KT 2000 SQ TSRA BKN015 SCT026CB 
     PROB40 
     TEMPO 2112/2120 09020G45KT 1200 SQ TSRA BKN015 SCT026CB
       
TAF GAGO 202300Z 2100/2124 20010KT 9999 SCT026 
     TEMPO 2106/2112 09020G40KT 1200 SQ BLDU TSRA BKN026 SCT033CB
       
GAMB 210300Z 18008KT CAVOK 30/25 Q1010
GANR 210300Z 22004KT CAVOK 28/23 Q1010
GAMB 210300Z 18008KT CAVOK 30/25 Q1010
GANR 210300Z 22004KT CAVOK 28/23 Q1010